createdAt,value
2022-09-18T00:00:52.183Z,24.15
2022-09-18T00:07:24.775Z,24.11
2022-09-18T00:13:52.026Z,24.12
2022-09-18T00:20:20.787Z,24.1
2022-09-18T00:26:52.103Z,24.09
2022-09-18T00:33:36.431Z,24.1
2022-09-18T00:40:07.866Z,24.09
2022-09-18T00:46:50.299Z,24.07
2022-09-18T00:53:36.365Z,24.1
2022-09-18T01:00:17.282Z,24.11
2022-09-18T01:06:52.777Z,24.09
2022-09-18T01:14:05.012Z,24.1
2022-09-18T01:21:13.283Z,24.1
2022-09-18T01:28:23.937Z,24.12
2022-09-18T01:35:40.377Z,24.07
2022-09-18T01:42:43.222Z,24.08
2022-09-18T01:49:33.783Z,24.14
2022-09-18T01:56:31.896Z,24.1
2022-09-18T02:03:21.188Z,24.07
2022-09-18T02:10:22.652Z,24.05
2022-09-18T02:17:18.000Z,24.05
2022-09-18T02:24:24.186Z,24.07
2022-09-18T02:31:19.158Z,24.06
2022-09-18T02:38:02.480Z,24.1
2022-09-18T02:45:10.116Z,24.12
2022-09-18T02:52:17.093Z,24.07
2022-09-18T02:59:31.119Z,24.13
2022-09-18T03:06:13.609Z,24.07
2022-09-18T03:12:48.252Z,24.05
2022-09-18T03:19:14.257Z,24.05
2022-09-18T03:25:44.582Z,24.01
2022-09-18T03:32:15.306Z,23.98
2022-09-18T03:38:46.302Z,23.97
2022-09-18T03:45:12.137Z,23.95
2022-09-18T03:51:34.472Z,23.93
2022-09-18T03:58:08.632Z,23.92
2022-09-18T04:04:40.718Z,23.9
2022-09-18T04:11:06.485Z,23.92
2022-09-18T04:17:34.361Z,23.93
2022-09-18T04:24:02.975Z,23.91
2022-09-18T04:30:28.172Z,23.9
2022-09-18T04:37:09.499Z,23.87
2022-09-18T04:43:33.461Z,23.89
2022-09-18T04:49:54.151Z,23.89
2022-09-18T04:56:16.466Z,23.85
2022-09-18T05:02:40.345Z,23.84
2022-09-18T05:09:04.435Z,23.82
2022-09-18T05:15:31.275Z,23.85
2022-09-18T05:22:03.108Z,23.89
2022-09-18T05:28:32.150Z,23.86
2022-09-18T05:34:54.410Z,23.88
2022-09-18T05:41:27.244Z,23.86
2022-09-18T05:47:56.214Z,23.89
2022-09-18T05:54:28.345Z,23.86
2022-09-18T06:01:06.377Z,23.87
2022-09-18T06:07:31.158Z,23.83
2022-09-18T06:13:59.845Z,23.82
2022-09-18T06:20:26.213Z,23.85
2022-09-18T06:26:53.162Z,23.85
2022-09-18T06:33:22.334Z,23.84
2022-09-18T06:40:00.373Z,23.86
2022-09-18T06:46:29.709Z,23.86
2022-09-18T06:53:01.432Z,23.83
2022-09-18T06:59:28.081Z,23.87
2022-09-18T07:06:04.450Z,23.87
2022-09-18T07:12:28.450Z,23.86
2022-09-18T07:18:56.564Z,23.87
2022-09-18T07:25:34.218Z,23.9
2022-09-18T07:32:05.738Z,23.88
2022-09-18T07:38:34.102Z,23.87
2022-09-18T07:45:04.825Z,23.86
2022-09-18T07:51:27.346Z,23.85
2022-09-18T07:58:02.726Z,23.83
2022-09-18T08:04:31.190Z,23.84
2022-09-18T08:10:56.456Z,23.89
2022-09-18T08:17:25.861Z,23.88
2022-09-18T08:23:50.437Z,23.87
2022-09-18T08:30:15.401Z,23.86
2022-09-18T08:36:46.197Z,23.88
2022-09-18T08:43:21.322Z,23.86
2022-09-18T08:50:29.605Z,23.84
2022-09-18T08:57:27.613Z,23.92
2022-09-18T09:04:28.274Z,23.93
2022-09-18T09:11:31.449Z,23.86
2022-09-18T09:18:38.374Z,23.84
2022-09-18T09:25:49.262Z,23.85
2022-09-18T09:32:58.408Z,23.89
2022-09-18T09:40:06.470Z,23.92
2022-09-18T09:47:15.653Z,23.85
2022-09-18T09:54:20.574Z,23.87
2022-09-18T10:01:29.826Z,23.88
2022-09-18T10:08:41.333Z,23.79
2022-09-18T10:15:52.692Z,23.81
2022-09-18T10:22:39.602Z,23.86
2022-09-18T10:29:17.932Z,23.8
2022-09-18T10:35:56.870Z,23.84
2022-09-18T10:42:43.610Z,23.77
2022-09-18T10:49:30.382Z,23.81
2022-09-18T10:56:21.502Z,23.82
2022-09-18T11:03:16.359Z,23.91
2022-09-18T11:10:06.325Z,23.98
2022-09-18T11:17:02.393Z,23.98
2022-09-18T11:23:49.879Z,23.88
2022-09-18T11:30:42.673Z,23.98
2022-09-18T11:38:00.331Z,23.95
2022-09-18T11:44:58.277Z,24.07
2022-09-18T11:52:10.099Z,24.08
2022-09-18T11:59:24.781Z,24.05
2022-09-18T12:06:29.423Z,23.91
2022-09-18T12:13:37.240Z,24
2022-09-18T12:20:37.923Z,23.98
2022-09-18T12:27:37.063Z,23.97
2022-09-18T12:34:48.101Z,23.91
2022-09-18T12:42:07.804Z,23.9
2022-09-18T12:49:06.841Z,23.81
2022-09-18T12:56:06.646Z,23.85
2022-09-18T13:03:10.241Z,23.85
2022-09-18T13:10:25.893Z,23.9
2022-09-18T13:17:28.874Z,23.87
2022-09-18T13:24:32.722Z,23.9
2022-09-18T13:31:11.589Z,23.88
2022-09-18T13:38:02.539Z,23.93
2022-09-18T13:45:06.455Z,23.86
2022-09-18T13:52:04.302Z,23.89
2022-09-18T13:58:55.593Z,23.84
2022-09-18T14:05:42.521Z,23.78
2022-09-18T14:12:44.966Z,23.81
2022-09-18T14:19:40.965Z,23.83
2022-09-18T14:26:24.609Z,23.85
2022-09-18T14:33:20.486Z,23.86
2022-09-18T14:40:10.951Z,23.79
2022-09-18T14:46:58.148Z,23.84
2022-09-18T14:53:46.501Z,23.83
2022-09-18T15:00:35.548Z,23.82
2022-09-18T15:07:30.722Z,23.77
2022-09-18T15:14:16.923Z,23.83
2022-09-18T15:20:58.608Z,23.96
2022-09-18T15:27:58.588Z,24.04
2022-09-18T15:34:45.895Z,24.11
2022-09-18T15:41:48.478Z,24.06
2022-09-18T15:48:50.443Z,23.99
2022-09-18T15:55:29.040Z,23.98
2022-09-18T16:02:22.564Z,23.89
2022-09-18T16:09:27.561Z,23.93
2022-09-18T16:16:34.995Z,23.82
2022-09-18T16:23:31.675Z,23.76
2022-09-18T16:30:26.610Z,23.78
2022-09-18T16:37:02.884Z,23.78
2022-09-18T16:43:39.540Z,23.75
2022-09-18T16:50:20.610Z,23.74
2022-09-18T16:56:49.062Z,23.72
2022-09-18T17:03:26.951Z,23.73
2022-09-18T17:10:00.986Z,23.69
2022-09-18T17:16:41.434Z,23.69
2022-09-18T17:23:11.305Z,23.68
2022-09-18T17:29:42.896Z,23.68
2022-09-18T17:36:17.870Z,23.66
2022-09-18T17:42:53.016Z,23.63
2022-09-18T17:49:22.658Z,23.66
2022-09-18T17:55:58.535Z,23.64
2022-09-18T18:02:28.562Z,23.64
2022-09-18T18:08:58.035Z,23.61
2022-09-18T18:15:21.994Z,23.64
2022-09-18T18:21:45.479Z,23.6
2022-09-18T18:28:12.831Z,23.57
2022-09-18T18:34:44.408Z,23.56
2022-09-18T18:41:12.633Z,23.55
2022-09-18T18:47:53.702Z,23.53
2022-09-18T18:54:19.440Z,23.53
2022-09-18T19:00:52.726Z,23.53
2022-09-18T19:07:29.362Z,23.52
2022-09-18T19:13:54.550Z,23.51
2022-09-18T19:20:14.730Z,23.54
2022-09-18T19:26:45.671Z,23.54
2022-09-18T19:33:29.513Z,23.54
2022-09-18T19:39:56.545Z,23.5
2022-09-18T19:46:56.828Z,23.54
2022-09-18T19:53:36.972Z,23.53
2022-09-18T20:00:06.518Z,23.5
2022-09-18T20:06:34.767Z,23.53
2022-09-18T20:13:10.439Z,23.53
2022-09-18T20:19:47.081Z,23.51
2022-09-18T20:26:15.609Z,23.51
2022-09-18T20:32:44.859Z,23.48
2022-09-18T20:39:19.583Z,23.5
2022-09-18T20:45:52.016Z,23.47
2022-09-18T20:52:30.692Z,23.49
2022-09-18T20:59:08.852Z,23.49
2022-09-18T21:06:12.902Z,23.46
2022-09-18T21:12:51.490Z,23.45
2022-09-18T21:19:19.735Z,23.47
2022-09-18T21:25:48.831Z,23.47
2022-09-18T21:32:32.219Z,23.49
2022-09-18T21:39:05.000Z,23.48
2022-09-18T21:45:30.586Z,23.48
2022-09-18T21:52:04.787Z,23.46
2022-09-18T21:58:38.838Z,23.51
2022-09-18T22:05:15.826Z,23.49
2022-09-18T22:11:49.179Z,23.62
2022-09-18T22:18:27.686Z,23.67
2022-09-18T22:24:59.828Z,23.63
2022-09-18T22:31:35.172Z,23.51
2022-09-18T22:38:14.707Z,23.55
2022-09-18T22:44:40.064Z,23.5
2022-09-18T22:51:09.240Z,23.49
2022-09-18T22:57:49.158Z,23.45
2022-09-18T23:04:26.565Z,23.45
2022-09-18T23:10:57.638Z,23.44
2022-09-18T23:17:29.691Z,23.48
2022-09-18T23:24:01.275Z,23.5
2022-09-18T23:30:41.250Z,23.55
2022-09-18T23:37:26.833Z,23.46
2022-09-18T23:44:10.225Z,23.39
2022-09-18T23:50:33.810Z,23.43
2022-09-18T23:56:59.013Z,23.45
